Weather at Baton Rouge Metropolitan Airport

Public forecast

Using degrees Fahrenheit for public forecast. Weather courtesy of forecast.io.

Current aviation weather report (METAR) for Baton Rouge Metropolitan Airport

2024/05/25 22:53 (retrieved 36 minutes ago)

KBTR 252253Z 19007KT 10SM CLR 33/22 A2982 RMK AO2 SLP094 T03330222

Aviation forecast (TAF) for Baton Rouge Metropolitan Airport

2024/05/25 18:39 (retrieved 5 hours ago)

TAF KBTR 251732Z 2518/2618 17009KT P6SM SCT035